createdAt,value
2022-11-05T00:00:58.050Z,84.06
2022-11-05T00:03:44.457Z,83.99
2022-11-05T00:06:31.189Z,83.75
2022-11-05T00:09:17.803Z,83.74
2022-11-05T00:12:04.514Z,83.71
2022-11-05T00:14:51.214Z,83.54
2022-11-05T00:17:19.396Z,83.50
2022-11-05T00:19:47.542Z,83.46
2022-11-05T00:22:34.274Z,83.52
2022-11-05T00:25:14.326Z,83.52
2022-11-05T00:27:53.840Z,83.45
2022-11-05T00:30:26.509Z,83.51
2022-11-05T00:32:54.726Z,83.60
2022-11-05T00:35:22.793Z,83.66
2022-11-05T00:37:53.534Z,83.71
2022-11-05T00:40:21.811Z,83.67
2022-11-05T00:43:08.871Z,83.70
2022-11-05T00:45:38.017Z,83.67
2022-11-05T00:48:24.781Z,83.74
2022-11-05T00:50:52.798Z,83.79
2022-11-05T00:53:20.828Z,83.85
2022-11-05T00:55:48.942Z,83.92
2022-11-05T00:58:19.882Z,84.00
2022-11-05T01:00:56.351Z,83.97
2022-11-05T01:03:27.669Z,83.83
2022-11-05T01:06:16.360Z,83.77
2022-11-05T01:08:46.067Z,83.99
2022-11-05T01:11:37.186Z,84.08
2022-11-05T01:14:09.123Z,84.24
2022-11-05T01:16:38.752Z,84.35
2022-11-05T01:19:09.258Z,84.41
2022-11-05T01:21:37.964Z,84.58
2022-11-05T01:24:06.659Z,84.79
2022-11-05T01:26:34.753Z,84.71
2022-11-05T01:29:02.847Z,84.68
2022-11-05T01:31:31.173Z,84.84
2022-11-05T01:34:00.798Z,84.83
2022-11-05T01:36:28.964Z,84.85
2022-11-05T01:38:57.245Z,84.82
2022-11-05T01:41:25.406Z,85.00
2022-11-05T01:43:57.176Z,85.15
2022-11-05T01:46:28.430Z,85.15
2022-11-05T01:49:03.103Z,85.15
2022-11-05T01:51:32.285Z,85.23
2022-11-05T01:54:05.122Z,85.21
2022-11-05T01:56:41.290Z,85.15
2022-11-05T01:59:18.776Z,85.17
2022-11-05T02:01:47.183Z,85.13
2022-11-05T02:04:30.909Z,85.18
2022-11-05T02:06:59.939Z,85.44
2022-11-05T02:09:37.034Z,85.61
2022-11-05T02:12:08.944Z,85.52
2022-11-05T02:14:37.012Z,85.45
2022-11-05T02:17:32.726Z,85.41
2022-11-05T02:20:27.737Z,85.49
2022-11-05T02:23:23.565Z,85.50
2022-11-05T02:26:03.609Z,85.45
2022-11-05T02:28:37.560Z,85.47
2022-11-05T02:31:17.877Z,85.48
2022-11-05T02:34:00.657Z,85.39
2022-11-05T02:36:50.996Z,85.54
2022-11-05T02:39:35.546Z,85.55
2022-11-05T02:42:13.043Z,85.51
2022-11-05T02:45:14.002Z,85.54
2022-11-05T02:47:44.311Z,85.36
2022-11-05T02:50:16.284Z,85.38
2022-11-05T02:53:10.594Z,85.41
2022-11-05T02:55:59.478Z,85.46
2022-11-05T02:58:29.019Z,85.54
2022-11-05T03:00:58.527Z,85.62
2022-11-05T03:03:43.204Z,85.66
2022-11-05T03:06:48.892Z,85.71
2022-11-05T03:09:48.052Z,85.83
2022-11-05T03:13:04.053Z,85.72
2022-11-05T03:15:55.972Z,85.73
2022-11-05T03:18:43.325Z,85.76
2022-11-05T03:21:36.319Z,85.81
2022-11-05T03:24:22.751Z,85.84
2022-11-05T03:27:02.607Z,85.90
2022-11-05T03:29:39.333Z,85.70
2022-11-05T03:32:09.714Z,85.83
2022-11-05T03:34:42.815Z,85.88
2022-11-05T03:37:11.886Z,86.39
2022-11-05T03:39:44.257Z,86.37
2022-11-05T03:42:18.271Z,86.08
2022-11-05T03:44:51.167Z,85.99
2022-11-05T03:47:25.886Z,85.83
2022-11-05T03:50:13.935Z,85.82
2022-11-05T03:52:48.475Z,85.96
2022-11-05T03:55:16.732Z,86.01
2022-11-05T03:57:50.121Z,86.02
2022-11-05T04:00:18.403Z,85.94
2022-11-05T04:02:46.755Z,85.92
2022-11-05T04:05:15.626Z,85.97
2022-11-05T04:08:03.810Z,86.40
2022-11-05T04:10:47.015Z,86.49
2022-11-05T04:13:27.855Z,86.36
2022-11-05T04:16:15.516Z,86.26
2022-11-05T04:18:43.724Z,86.19
2022-11-05T04:21:30.845Z,86.09
2022-11-05T04:24:11.471Z,86.11
2022-11-05T04:26:43.921Z,86.07
2022-11-05T04:29:30.694Z,85.89
2022-11-05T04:31:58.867Z,85.85
2022-11-05T04:34:26.937Z,85.77
2022-11-05T04:36:55.106Z,85.81
2022-11-05T04:39:23.179Z,85.85
2022-11-05T04:41:51.257Z,85.96
2022-11-05T04:44:19.162Z,86.31
2022-11-05T04:46:47.189Z,86.70
2022-11-05T04:49:15.276Z,86.70
2022-11-05T04:51:43.743Z,86.81
2022-11-05T04:54:11.814Z,86.74
2022-11-05T04:56:39.892Z,86.52
2022-11-05T04:59:07.862Z,86.26
2022-11-05T05:01:36.110Z,86.21
2022-11-05T05:04:04.519Z,86.04
2022-11-05T05:06:32.685Z,86.01
2022-11-05T05:09:00.824Z,86.03
2022-11-05T05:11:29.048Z,85.94
2022-11-05T05:13:57.824Z,85.56
2022-11-05T05:16:27.721Z,85.22
2022-11-05T05:18:56.021Z,85.60
2022-11-05T05:21:39.358Z,85.48
2022-11-05T05:24:14.235Z,85.69
2022-11-05T05:26:44.864Z,86.01
2022-11-05T05:29:13.579Z,86.03
2022-11-05T05:31:42.476Z,86.03
2022-11-05T05:34:12.975Z,86.23
2022-11-05T05:36:41.002Z,86.63
2022-11-05T05:39:11.183Z,86.58
2022-11-05T05:41:39.494Z,86.41
2022-11-05T05:44:07.558Z,86.23
2022-11-05T05:46:35.636Z,86.17
2022-11-05T05:49:06.714Z,86.31
2022-11-05T05:51:39.455Z,86.55
2022-11-05T05:54:07.566Z,86.74
2022-11-05T05:56:35.657Z,86.65
2022-11-05T05:59:05.554Z,86.34
2022-11-05T06:01:33.718Z,86.20
2022-11-05T06:04:02.069Z,86.06
2022-11-05T06:06:30.254Z,86.00
2022-11-05T06:08:58.180Z,85.98
2022-11-05T06:11:26.747Z,85.83
2022-11-05T06:13:54.970Z,85.61
2022-11-05T06:16:23.449Z,85.47
2022-11-05T06:18:51.850Z,85.31
2022-11-05T06:21:19.937Z,85.11
2022-11-05T06:23:49.236Z,84.72
2022-11-05T06:26:18.501Z,84.51
2022-11-05T06:28:46.790Z,84.55
2022-11-05T06:31:15.309Z,84.80
2022-11-05T06:33:43.645Z,84.87
2022-11-05T06:36:16.059Z,84.80
2022-11-05T06:38:44.207Z,84.77
2022-11-05T06:41:12.203Z,84.62
2022-11-05T06:43:40.748Z,84.41
2022-11-05T06:46:11.146Z,84.14
2022-11-05T06:48:39.971Z,83.92
2022-11-05T06:51:08.746Z,83.70
2022-11-05T06:53:37.227Z,83.22
2022-11-05T06:56:07.056Z,83.08
2022-11-05T06:58:35.317Z,82.55
2022-11-05T07:01:08.570Z,82.40
2022-11-05T07:03:38.124Z,82.03
2022-11-05T07:06:07.652Z,81.91
2022-11-05T07:08:37.335Z,81.87
2022-11-05T07:11:06.147Z,81.50
2022-11-05T07:13:34.406Z,81.07
2022-11-05T07:16:02.476Z,80.32
2022-11-05T07:18:30.446Z,79.56
2022-11-05T07:21:00.647Z,79.20
2022-11-05T07:23:28.836Z,79.21
2022-11-05T07:25:57.321Z,79.16
2022-11-05T07:28:25.491Z,78.97
2022-11-05T07:30:54.487Z,78.96
2022-11-05T07:33:22.666Z,78.94
2022-11-05T07:35:50.642Z,79.13
2022-11-05T07:38:19.523Z,78.84
2022-11-05T07:40:47.799Z,78.82
2022-11-05T07:43:15.975Z,78.61
2022-11-05T07:45:46.548Z,78.43
2022-11-05T07:48:14.573Z,77.23
2022-11-05T07:50:42.861Z,77.01
2022-11-05T07:53:14.537Z,76.58
2022-11-05T07:55:44.431Z,75.64
2022-11-05T07:58:12.714Z,75.02
2022-11-05T08:00:40.764Z,75.25
2022-11-05T08:03:09.129Z,75.13
2022-11-05T08:05:40.424Z,74.48
2022-11-05T08:08:09.746Z,74.22
2022-11-05T08:10:39.212Z,73.77
2022-11-05T08:13:07.879Z,73.60
2022-11-05T08:15:36.789Z,72.63
2022-11-05T08:18:06.606Z,71.45
2022-11-05T08:20:36.201Z,70.11
2022-11-05T08:23:04.890Z,68.45
2022-11-05T08:25:33.249Z,66.85
2022-11-05T08:28:10.664Z,66.83
2022-11-05T08:30:38.940Z,65.90
2022-11-05T08:33:13.074Z,64.95
2022-11-05T08:35:42.160Z,64.59
2022-11-05T08:38:16.165Z,62.56
2022-11-05T08:40:53.653Z,61.87
2022-11-05T08:43:22.546Z,59.43
2022-11-05T08:45:50.740Z,58.38
2022-11-05T08:48:19.707Z,57.91
2022-11-05T08:50:48.813Z,56.81
2022-11-05T08:53:18.529Z,54.73
2022-11-05T08:55:48.229Z,54.16
2022-11-05T08:58:17.210Z,53.86
2022-11-05T09:00:48.612Z,54.86
2022-11-05T09:03:17.679Z,53.79
2022-11-05T09:05:45.735Z,53.84
2022-11-05T09:08:19.047Z,49.97
2022-11-05T09:10:50.073Z,48.29
2022-11-05T09:13:20.134Z,46.86
2022-11-05T09:15:49.930Z,44.35
2022-11-05T09:18:19.888Z,44.96
2022-11-05T09:20:48.500Z,41.59
2022-11-05T09:23:17.297Z,41.24
2022-11-05T09:25:45.476Z,42.28
2022-11-05T09:28:17.433Z,42.77
2022-11-05T09:30:50.977Z,41.92
2022-11-05T09:33:22.452Z,41.31
2022-11-05T09:35:51.991Z,41.66
2022-11-05T09:38:20.270Z,43.78
2022-11-05T09:41:07.485Z,43.94
2022-11-05T09:43:58.597Z,44.97
2022-11-05T09:46:33.332Z,46.25
2022-11-05T09:49:12.308Z,47.13
2022-11-05T09:51:41.559Z,47.89
2022-11-05T09:54:13.311Z,48.72
2022-11-05T09:56:42.321Z,49.43
2022-11-05T09:59:20.411Z,49.28
2022-11-05T10:01:51.613Z,48.75
2022-11-05T10:04:23.884Z,48.36
2022-11-05T10:07:03.984Z,48.94
2022-11-05T10:09:46.382Z,48.30
2022-11-05T10:12:23.276Z,47.76
2022-11-05T10:15:16.430Z,47.71
2022-11-05T10:17:49.964Z,48.32
2022-11-05T10:20:30.902Z,48.15
2022-11-05T10:23:05.943Z,48.06
2022-11-05T10:25:39.622Z,47.58
2022-11-05T10:28:09.967Z,47.08
2022-11-05T10:30:38.660Z,46.75
2022-11-05T10:33:08.902Z,47.80
2022-11-05T10:35:46.489Z,48.05
2022-11-05T10:38:18.251Z,47.97
2022-11-05T10:41:04.636Z,47.85
2022-11-05T10:43:49.766Z,49.03
2022-11-05T10:46:23.926Z,49.57
2022-11-05T10:49:07.777Z,49.76
2022-11-05T10:51:36.244Z,49.61
2022-11-05T10:54:13.895Z,49.53
2022-11-05T10:56:42.681Z,50.10
2022-11-05T10:59:23.832Z,50.19
2022-11-05T11:02:30.480Z,50.49
2022-11-05T11:04:58.972Z,50.20
2022-11-05T11:07:27.444Z,50.80
2022-11-05T11:09:55.670Z,51.43
2022-11-05T11:12:40.900Z,51.18
2022-11-05T11:15:23.926Z,51.86
2022-11-05T11:17:51.886Z,52.11
2022-11-05T11:20:31.503Z,52.45
2022-11-05T11:23:19.981Z,51.99
2022-11-05T11:25:52.108Z,52.92
2022-11-05T11:28:44.285Z,53.30
2022-11-05T11:31:15.979Z,53.37
2022-11-05T11:33:47.155Z,53.75
2022-11-05T11:36:19.782Z,53.77
2022-11-05T11:38:49.133Z,53.74
2022-11-05T11:41:25.440Z,53.65
2022-11-05T11:44:18.805Z,53.99
2022-11-05T11:46:52.555Z,54.28
2022-11-05T11:49:49.415Z,55.01
2022-11-05T11:52:19.982Z,55.02
2022-11-05T11:54:48.051Z,55.63
2022-11-05T11:57:20.869Z,55.38
2022-11-05T12:00:07.782Z,55.55
2022-11-05T12:02:37.520Z,54.53
2022-11-05T12:05:12.706Z,53.60
2022-11-05T12:07:53.251Z,53.58
2022-11-05T12:10:40.286Z,52.93
2022-11-05T12:13:28.226Z,52.73
2022-11-05T12:16:03.467Z,52.20
2022-11-05T12:18:56.414Z,52.73
2022-11-05T12:21:53.296Z,52.71
2022-11-05T12:24:40.183Z,52.64
2022-11-05T12:27:09.614Z,52.94
2022-11-05T12:29:53.317Z,53.22
2022-11-05T12:32:49.633Z,53.49
2022-11-05T12:35:46.991Z,53.42
2022-11-05T12:38:34.947Z,53.44
2022-11-05T12:41:22.481Z,53.60
2022-11-05T12:44:28.401Z,53.75
2022-11-05T12:47:25.896Z,53.76
2022-11-05T12:50:31.846Z,54.10
2022-11-05T12:53:03.111Z,54.41
2022-11-05T12:55:45.509Z,54.48
2022-11-05T12:58:25.574Z,54.72
2022-11-05T13:01:03.554Z,55.32
2022-11-05T13:03:45.095Z,55.85
2022-11-05T13:06:25.528Z,55.67
2022-11-05T13:09:05.572Z,55.17
2022-11-05T13:11:43.072Z,54.83
2022-11-05T13:14:22.707Z,54.78
2022-11-05T13:17:21.404Z,55.25
2022-11-05T13:20:18.046Z,55.30
2022-11-05T13:22:55.846Z,55.76
2022-11-05T13:25:27.403Z,56.35
2022-11-05T13:28:01.614Z,56.58
2022-11-05T13:30:41.563Z,57.02
2022-11-05T13:33:23.510Z,56.40
2022-11-05T13:36:26.039Z,56.60
2022-11-05T13:39:11.005Z,57.31
2022-11-05T13:41:53.722Z,58.69
2022-11-05T13:44:59.885Z,59.08
2022-11-05T13:47:55.715Z,59.34
2022-11-05T13:50:51.040Z,59.30
2022-11-05T13:53:34.046Z,59.97
2022-11-05T13:56:12.514Z,60.37
2022-11-05T13:59:04.906Z,61.07
2022-11-05T14:01:43.867Z,61.66
2022-11-05T14:04:41.343Z,61.91
2022-11-05T14:07:21.243Z,62.14
2022-11-05T14:09:59.359Z,62.62
2022-11-05T14:12:38.997Z,63.35
2022-11-05T14:15:28.880Z,63.88
2022-11-05T14:17:59.103Z,63.80
2022-11-05T14:20:30.657Z,63.90
2022-11-05T14:23:17.425Z,64.05
2022-11-05T14:25:45.449Z,64.00
2022-11-05T14:28:35.227Z,63.92
2022-11-05T14:31:40.979Z,63.81
2022-11-05T14:34:13.357Z,64.10
2022-11-05T14:37:05.418Z,64.54
2022-11-05T14:39:33.656Z,64.70
2022-11-05T14:42:12.486Z,65.44
2022-11-05T14:45:19.260Z,65.73
2022-11-05T14:47:55.062Z,65.57
2022-11-05T14:50:31.390Z,65.45
2022-11-05T14:53:22.405Z,65.74
2022-11-05T14:56:15.134Z,65.83
2022-11-05T14:58:44.610Z,65.85
2022-11-05T15:01:15.628Z,66.36
2022-11-05T15:04:00.062Z,66.67
2022-11-05T15:06:36.913Z,66.72
2022-11-05T15:09:17.271Z,66.76
2022-11-05T15:12:02.494Z,66.74
2022-11-05T15:14:36.456Z,66.93
2022-11-05T15:17:12.462Z,67.41
2022-11-05T15:19:42.033Z,67.72
2022-11-05T15:22:26.779Z,68.10
2022-11-05T15:24:55.637Z,68.42
2022-11-05T15:27:45.465Z,68.71
2022-11-05T15:30:21.078Z,68.84
2022-11-05T15:32:49.901Z,69.15
2022-11-05T15:35:29.787Z,69.79
2022-11-05T15:38:02.195Z,70.08
2022-11-05T15:40:32.844Z,69.94
2022-11-05T15:43:10.902Z,69.97
2022-11-05T15:45:39.335Z,70.10
2022-11-05T15:48:18.778Z,70.00
2022-11-05T15:50:46.950Z,70.16
2022-11-05T15:53:44.025Z,70.45
2022-11-05T15:56:20.582Z,70.53
2022-11-05T15:58:51.031Z,70.58
2022-11-05T16:01:35.606Z,70.80
2022-11-05T16:04:11.357Z,70.95
2022-11-05T16:06:41.515Z,72.39
2022-11-05T16:09:31.323Z,73.97
2022-11-05T16:12:24.196Z,74.75
2022-11-05T16:15:04.744Z,74.52
2022-11-05T16:17:45.602Z,73.70
2022-11-05T16:20:25.461Z,73.08
2022-11-05T16:23:01.358Z,73.02
2022-11-05T16:25:35.836Z,71.93
2022-11-05T16:28:25.508Z,71.47
2022-11-05T16:30:53.592Z,71.98
2022-11-05T16:33:22.172Z,72.71
2022-11-05T16:35:51.266Z,72.96
2022-11-05T16:38:20.363Z,72.52
2022-11-05T16:40:48.208Z,73.06
2022-11-05T16:43:22.284Z,73.32
2022-11-05T16:45:53.789Z,73.21
2022-11-05T16:48:22.373Z,73.30
2022-11-05T16:50:50.964Z,73.28
2022-11-05T16:53:19.136Z,73.53
2022-11-05T16:55:47.954Z,73.74
2022-11-05T16:58:22.781Z,73.95
2022-11-05T17:00:52.665Z,74.00
2022-11-05T17:03:20.849Z,74.02
2022-11-05T17:05:49.228Z,73.83
2022-11-05T17:08:17.300Z,74.57
2022-11-05T17:10:45.681Z,73.88
2022-11-05T17:13:18.317Z,73.02
2022-11-05T17:15:48.783Z,74.33
2022-11-05T17:18:19.172Z,74.93
2022-11-05T17:20:53.736Z,74.84
2022-11-05T17:23:23.983Z,74.88
2022-11-05T17:25:54.696Z,75.32
2022-11-05T17:28:23.991Z,75.34
2022-11-05T17:30:53.136Z,75.26
2022-11-05T17:33:23.210Z,75.31
2022-11-05T17:35:54.041Z,75.45
2022-11-05T17:38:23.970Z,75.65
2022-11-05T17:40:53.082Z,75.65
2022-11-05T17:43:21.697Z,75.82
2022-11-05T17:45:57.535Z,75.84
2022-11-05T17:48:28.538Z,75.74
2022-11-05T17:50:57.225Z,75.64
2022-11-05T17:53:25.304Z,75.82
2022-11-05T17:55:53.429Z,75.93
2022-11-05T17:58:21.646Z,75.90
2022-11-05T18:00:49.848Z,76.01
2022-11-05T18:03:17.883Z,75.77
2022-11-05T18:05:45.955Z,75.47
2022-11-05T18:08:14.239Z,75.80
2022-11-05T18:10:42.626Z,75.95
2022-11-05T18:13:11.603Z,75.73
2022-11-05T18:15:41.458Z,75.80
2022-11-05T18:18:10.828Z,75.76
2022-11-05T18:20:39.103Z,76.00
2022-11-05T18:23:07.186Z,75.98
2022-11-05T18:25:35.694Z,75.86
2022-11-05T18:28:03.929Z,75.93
2022-11-05T18:30:32.306Z,75.68
2022-11-05T18:33:00.692Z,75.67
2022-11-05T18:35:29.100Z,75.70
2022-11-05T18:37:57.137Z,75.68
2022-11-05T18:40:25.313Z,75.76
2022-11-05T18:42:53.281Z,75.85
2022-11-05T18:45:25.512Z,76.07
2022-11-05T18:47:56.597Z,76.41
2022-11-05T18:50:24.665Z,76.36
2022-11-05T18:52:52.736Z,76.02
2022-11-05T18:55:21.120Z,76.18
2022-11-05T18:57:49.161Z,76.40
2022-11-05T19:00:17.372Z,76.46
2022-11-05T19:02:45.534Z,76.48
2022-11-05T19:05:28.585Z,76.57
2022-11-05T19:07:57.862Z,76.45
2022-11-05T19:10:26.853Z,76.54
2022-11-05T19:12:54.931Z,76.78
2022-11-05T19:15:23.111Z,76.93
2022-11-05T19:17:51.185Z,77.04
2022-11-05T19:20:19.392Z,76.78
2022-11-05T19:22:47.641Z,77.18
2022-11-05T19:25:15.798Z,77.15
2022-11-05T19:27:44.186Z,77.29
2022-11-05T19:30:12.769Z,77.35
2022-11-05T19:32:40.943Z,77.62
2022-11-05T19:35:09.836Z,77.78
2022-11-05T19:37:37.907Z,77.88
2022-11-05T19:40:06.796Z,77.98
2022-11-05T19:42:34.902Z,77.95
2022-11-05T19:45:43.035Z,77.94
2022-11-05T19:47:51.596Z,77.83
2022-11-05T19:50:19.875Z,77.98
2022-11-05T19:52:48.055Z,77.81
2022-11-05T19:55:16.124Z,77.55
2022-11-05T19:57:45.108Z,78.11
2022-11-05T20:00:13.914Z,78.27
2022-11-05T20:02:48.220Z,78.16
2022-11-05T20:05:18.283Z,78.46
2022-11-05T20:07:52.342Z,78.61
2022-11-05T20:10:21.680Z,78.60
2022-11-05T20:12:50.758Z,78.58
2022-11-05T20:15:19.947Z,78.58
2022-11-05T20:17:51.810Z,78.52
2022-11-05T20:20:20.701Z,78.40
2022-11-05T20:22:48.844Z,78.36
2022-11-05T20:25:17.165Z,78.04
2022-11-05T20:27:45.218Z,77.41
2022-11-05T20:30:13.712Z,78.10
2022-11-05T20:32:41.986Z,78.55
2022-11-05T20:35:10.463Z,78.63
2022-11-05T20:37:38.739Z,78.47
2022-11-05T20:40:16.399Z,78.43
2022-11-05T20:42:47.684Z,78.32
2022-11-05T20:45:18.206Z,78.28
2022-11-05T20:47:47.833Z,78.30
2022-11-05T20:50:15.974Z,78.29
2022-11-05T20:52:44.172Z,78.36
2022-11-05T20:55:12.336Z,78.43
2022-11-05T20:57:40.320Z,78.39
2022-11-05T21:00:08.965Z,78.49
2022-11-05T21:02:39.016Z,78.46
2022-11-05T21:05:08.350Z,78.32
2022-11-05T21:07:36.492Z,78.35
2022-11-05T21:10:06.057Z,78.50
2022-11-05T21:12:34.484Z,78.49
2022-11-05T21:15:02.545Z,78.57
2022-11-05T21:17:30.556Z,78.75
2022-11-05T21:19:58.828Z,78.69
2022-11-05T21:22:26.969Z,78.68
2022-11-05T21:24:57.013Z,78.70
2022-11-05T21:27:25.093Z,78.66
2022-11-05T21:29:53.478Z,78.75
2022-11-05T21:32:21.537Z,78.67
2022-11-05T21:34:49.653Z,78.73
2022-11-05T21:37:17.725Z,78.76
2022-11-05T21:39:46.593Z,78.67
2022-11-05T21:42:14.750Z,78.50
2022-11-05T21:44:42.929Z,78.15
2022-11-05T21:47:10.898Z,77.74
2022-11-05T21:49:38.896Z,77.78
2022-11-05T21:52:26.187Z,77.78
2022-11-05T21:55:14.132Z,78.07
2022-11-05T21:58:01.547Z,78.24
2022-11-05T22:00:29.729Z,78.00
2022-11-05T22:03:00.265Z,77.59
2022-11-05T22:05:28.436Z,77.42
2022-11-05T22:07:56.607Z,77.13
2022-11-05T22:10:25.301Z,77.21
2022-11-05T22:12:53.689Z,77.23
2022-11-05T22:15:22.055Z,77.45
2022-11-05T22:17:51.253Z,77.74
2022-11-05T22:20:20.219Z,77.85
2022-11-05T22:22:48.697Z,78.03
2022-11-05T22:25:17.100Z,77.94
2022-11-05T22:27:46.145Z,78.03
2022-11-05T22:30:14.765Z,78.04
2022-11-05T22:32:42.785Z,77.91
2022-11-05T22:35:11.003Z,77.95
2022-11-05T22:37:39.571Z,78.29
2022-11-05T22:40:08.349Z,78.32
2022-11-05T22:42:36.786Z,78.32
2022-11-05T22:45:06.030Z,78.59
2022-11-05T22:47:34.834Z,78.46
2022-11-05T22:50:05.184Z,78.54
2022-11-05T22:52:33.629Z,78.73
2022-11-05T22:55:04.318Z,78.68
2022-11-05T22:57:32.642Z,78.61
2022-11-05T23:00:01.220Z,78.42
2022-11-05T23:02:29.460Z,78.52
2022-11-05T23:04:57.667Z,78.54
2022-11-05T23:07:44.373Z,78.90
2022-11-05T23:10:31.191Z,78.73
2022-11-05T23:12:59.277Z,78.90
2022-11-05T23:16:06.247Z,78.95
2022-11-05T23:18:53.386Z,79.07
2022-11-05T23:21:40.744Z,79.13
2022-11-05T23:24:14.883Z,79.41
2022-11-05T23:26:54.354Z,79.37
2022-11-05T23:29:27.278Z,79.49
2022-11-05T23:32:14.804Z,79.80
2022-11-05T23:34:45.836Z,79.84
2022-11-05T23:37:33.662Z,80.06
2022-11-05T23:40:02.419Z,80.16
2022-11-05T23:42:49.039Z,80.38
2022-11-05T23:45:36.161Z,80.27
2022-11-05T23:48:27.066Z,80.00
2022-11-05T23:50:58.055Z,81.13
2022-11-05T23:53:27.202Z,81.26
2022-11-05T23:56:01.747Z,81.15
2022-11-05T23:58:30.029Z,81.08
